Time;durP1;ratioP1;P1;durP2;ratioP2;P2;SDS_P1;SDS_P2;PMS_P1;PMS_P2;Temp;Humidity;BMP_temperature;BMP_pressure;BME280_temperature;BME280_humidity;BME280_pressure;Samples;Min_cycle;Max_cycle;Signal;HPM_P1;HPM_P2
2021/06/02 00:00:07;;;;;;;8.83;4.97;;;16.80;79.70;;;;;;5049582;28;20237;-83
2021/06/02 00:02:59;;;;;;;5.87;5.10;;;16.80;79.10;;;;;;5058343;28;20242;-84
2021/06/02 00:05:27;;;;;;;4.87;4.47;;;16.80;79.30;;;;;;5058558;28;20206;-83
2021/06/02 00:07:56;;;;;;;9.73;5.00;;;16.80;79.30;;;;;;5072781;28;20321;-84
2021/06/02 00:10:25;;;;;;;7.60;4.90;;;16.90;79.40;;;;;;5041114;28;20214;-84
2021/06/02 00:12:53;;;;;;;5.83;4.50;;;16.90;79.50;;;;;;5058048;28;20230;-84
2021/06/02 00:15:21;;;;;;;6.30;4.20;;;16.90;79.60;;;;;;5036206;28;20701;-85
2021/06/02 00:17:52;;;;;;;5.80;4.40;;;16.90;79.70;;;;;;5042315;28;20214;-84
2021/06/02 00:20:22;;;;;;;4.97;4.30;;;16.90;79.80;;;;;;5061091;28;20689;-84
2021/06/02 00:22:50;;;;;;;6.30;3.93;;;16.90;79.80;;;;;;5072199;28;20534;-84
2021/06/02 00:25:18;;;;;;;6.27;4.80;;;16.90;79.90;;;;;;5049320;28;20648;-83
2021/06/02 00:27:46;;;;;;;5.13;4.63;;;16.90;80.10;;;;;;5059358;28;20213;-84
2021/06/02 00:30:17;;;;;;;5.03;4.53;;;16.90;80.30;;;;;;5055241;28;20219;-83
2021/06/02 00:32:44;;;;;;;4.93;4.53;;;16.90;80.60;;;;;;5047145;28;20216;-82
2021/06/02 00:35:17;;;;;;;5.47;4.33;;;16.90;80.70;;;;;;5078904;28;20265;-83
2021/06/02 00:37:48;;;;;;;6.13;3.73;;;16.90;80.80;;;;;;5079050;28;20218;-84
2021/06/02 00:40:33;;;;;;;5.00;4.50;;;16.90;80.80;;;;;;5050558;28;20283;-82
2021/06/02 00:43:02;;;;;;;6.77;4.63;;;17.00;81.00;;;;;;5041094;28;20190;-84
2021/06/02 00:45:33;;;;;;;5.33;4.43;;;17.00;80.90;;;;;;5040524;28;20314;-83
2021/06/02 00:48:04;;;;;;;6.77;5.40;;;17.10;80.90;;;;;;5060075;28;20229;-83
2021/06/02 00:50:31;;;;;;;6.87;5.43;;;17.10;80.70;;;;;;5060557;28;20626;-83
2021/06/02 00:53:00;;;;;;;6.37;4.93;;;17.10;80.60;;;;;;5064235;28;20605;-82
2021/06/02 00:55:27;;;;;;;6.13;5.53;;;17.10;80.60;;;;;;5076250;28;20210;-82
2021/06/02 00:57:57;;;;;;;7.67;5.33;;;17.20;80.70;;;;;;5060566;28;20209;-82
2021/06/02 01:00:25;;;;;;;6.83;5.70;;;17.10;80.70;;;;;;5058355;28;20272;-83
2021/06/02 01:02:53;;;;;;;6.50;5.90;;;17.10;80.70;;;;;;5057291;28;20230;-82
2021/06/02 01:05:24;;;;;;;8.70;5.73;;;17.00;80.80;;;;;;5075186;28;20217;-83
2021/06/02 01:07:53;;;;;;;6.43;5.83;;;16.90;81.10;;;;;;5077276;28;20198;-82
2021/06/02 01:10:21;;;;;;;7.70;6.37;;;16.80;81.60;;;;;;5077469;28;20213;-82
2021/06/02 01:12:50;;;;;;;7.63;6.67;;;16.70;81.70;;;;;;5077148;28;20221;-82
2021/06/02 01:15:20;;;;;;;6.53;5.83;;;16.60;82.00;;;;;;5077152;28;20201;-83
2021/06/02 01:17:47;;;;;;;8.93;7.03;;;16.50;82.20;;;;;;5058448;28;20252;-82
2021/06/02 01:20:17;;;;;;;8.67;5.87;;;16.50;82.40;;;;;;5048676;28;20226;-82
2021/06/02 01:22:45;;;;;;;8.90;6.90;;;16.50;82.50;;;;;;5040367;28;20213;-82
2021/06/02 01:25:18;;;;;;;6.30;5.70;;;16.40;82.40;;;;;;5056929;28;20198;-82
2021/06/02 01:27:46;;;;;;;9.10;6.93;;;16.40;82.60;;;;;;5064681;28;20213;-82
2021/06/02 01:30:20;;;;;;;10.27;6.37;;;16.30;82.70;;;;;;5044368;28;20613;-82
2021/06/02 01:33:16;;;;;;;6.40;5.80;;;16.20;82.80;;;;;;5037237;28;20245;-82
2021/06/02 01:35:56;;;;;;;7.27;6.33;;;16.10;83.10;;;;;;5060091;28;20725;-82
2021/06/02 01:38:59;;;;;;;11.03;8.07;;;16.10;83.20;;;;;;5066732;28;20222;-82
2021/06/02 01:41:35;;;;;;;8.93;6.87;;;16.00;83.30;;;;;;5002863;28;20220;-82
2021/06/02 01:44:59;;;;;;;7.90;7.20;;;16.00;83.60;;;;;;5063543;28;20225;-83
2021/06/02 01:47:53;;;;;;;8.03;6.97;;;16.00;83.80;;;;;;4941212;29;20241;-82
2021/06/02 01:50:48;;;;;;;9.27;6.80;;;16.00;83.70;;;;;;4942342;29;20218;-82
2021/06/02 01:53:36;;;;;;;10.20;7.87;;;16.10;83.90;;;;;;5010164;28;20660;-82
2021/06/02 01:56:24;;;;;;;8.43;6.63;;;16.10;83.80;;;;;;5068923;28;20197;-82
2021/06/02 01:59:10;;;;;;;16.20;8.13;;;16.10;83.70;;;;;;5076637;28;20206;-82
2021/06/02 02:02:00;;;;;;;14.33;6.77;;;16.10;83.70;;;;;;5027558;28;20207;-82
2021/06/02 02:04:44;;;;;;;27.80;7.63;;;16.10;83.70;;;;;;5035097;28;20878;-82
2021/06/02 02:07:49;;;;;;;11.50;7.10;;;16.10;83.80;;;;;;5017676;28;20243;-82
2021/06/02 02:10:37;;;;;;;8.57;7.77;;;16.10;83.90;;;;;;5038329;28;20329;-82
2021/06/02 02:13:49;;;;;;;8.70;7.90;;;16.10;84.30;;;;;;5037962;28;20207;-82
2021/06/02 02:17:14;;;;;;;11.20;7.60;;;16.00;84.60;;;;;;4956207;29;20256;-82
2021/06/02 02:20:05;;;;;;;10.97;8.27;;;15.90;84.80;;;;;;4915156;29;20219;-82
2021/06/02 02:23:30;;;;;;;9.27;7.43;;;15.80;85.30;;;;;;4899511;29;20556;-82
2021/06/02 02:26:35;;;;;;;10.10;7.83;;;15.80;85.20;;;;;;4918503;29;20278;-82
2021/06/02 02:29:28;;;;;;;10.57;9.10;;;15.70;85.30;;;;;;4883611;29;20235;-83
2021/06/02 02:32:22;;;;;;;10.13;9.17;;;15.70;85.80;;;;;;4936860;29;20215;-82
2021/06/02 02:35:02;;;;;;;11.67;9.23;;;15.60;86.30;;;;;;4939832;29;20282;-82
2021/06/02 02:37:57;;;;;;;10.27;8.77;;;15.60;86.30;;;;;;4951519;29;20272;-82
2021/06/02 02:40:40;;;;;;;13.43;8.97;;;15.60;86.20;;;;;;4941801;29;20269;-82
2021/06/02 02:43:31;;;;;;;9.80;8.80;;;15.60;86.30;;;;;;4936979;29;20214;-82
2021/06/02 02:46:09;;;;;;;11.90;8.00;;;15.60;86.10;;;;;;4936398;29;20568;-82
2021/06/02 02:49:20;;;;;;;10.80;9.63;;;15.60;86.00;;;;;;4924963;29;20706;-82
2021/06/02 02:52:15;;;;;;;10.93;8.57;;;15.50;86.10;;;;;;4870212;29;20224;-82
2021/06/02 02:54:53;;;;;;;10.30;8.60;;;15.40;86.20;;;;;;4880245;29;20235;-82
2021/06/02 02:57:29;;;;;;;10.67;9.03;;;15.30;86.40;;;;;;4969354;28;20229;-82
2021/06/02 03:00:03;;;;;;;11.80;9.17;;;15.30;86.80;;;;;;4986401;28;20232;-83
2021/06/02 03:02:57;;;;;;;10.90;9.80;;;15.30;86.70;;;;;;4992215;28;20260;-82
2021/06/02 03:05:30;;;;;;;10.30;8.67;;;15.30;87.20;;;;;;5062888;28;20236;-83
2021/06/02 03:08:17;;;;;;;10.03;8.77;;;15.30;87.20;;;;;;5070977;28;20288;-83
2021/06/02 03:10:54;;;;;;;13.93;9.97;;;15.30;87.40;;;;;;5079357;28;20201;-82
2021/06/02 03:13:39;;;;;;;9.40;8.43;;;15.30;87.50;;;;;;5061336;28;20201;-83
2021/06/02 03:16:14;;;;;;;10.43;9.33;;;15.30;87.60;;;;;;5061696;28;20213;-82
2021/06/02 03:18:41;;;;;;;12.17;9.07;;;15.30;87.60;;;;;;5079167;28;20235;-82
2021/06/02 03:21:46;;;;;;;11.53;9.70;;;15.40;87.60;;;;;;5061894;28;20228;-82
2021/06/02 03:24:23;;;;;;;10.30;8.70;;;15.40;87.40;;;;;;5049902;28;20214;-82
2021/06/02 03:27:32;;;;;;;10.57;9.00;;;15.40;86.90;;;;;;5058693;28;20627;-82
2021/06/02 03:30:02;;;;;;;9.10;8.20;;;15.30;87.00;;;;;;4959014;28;20682;-82
2021/06/02 03:32:50;;;;;;;10.60;8.67;;;15.30;87.00;;;;;;4939614;29;20219;-82
2021/06/02 03:35:53;;;;;;;11.10;8.50;;;15.20;86.70;;;;;;4989755;28;20646;-83
2021/06/02 03:38:41;;;;;;;10.37;9.27;;;15.20;86.80;;;;;;5043211;28;20209;-83
2021/06/02 03:41:15;;;;;;;9.63;8.20;;;15.10;87.10;;;;;;5070640;28;20272;-83
2021/06/02 03:43:47;;;;;;;9.77;8.60;;;15.10;87.30;;;;;;5052553;28;20225;-82
2021/06/02 03:46:23;;;;;;;9.63;8.60;;;15.10;87.50;;;;;;5071720;28;20214;-82
2021/06/02 03:49:09;;;;;;;10.57;8.07;;;15.10;87.60;;;;;;5038830;28;20211;-82
2021/06/02 03:51:48;;;;;;;8.50;7.60;;;15.20;87.60;;;;;;5021084;28;20207;-83
2021/06/02 03:54:36;;;;;;;10.03;9.03;;;15.20;87.60;;;;;;5021703;28;20206;-83
2021/06/02 03:57:03;;;;;;;11.23;9.07;;;15.20;87.90;;;;;;5038592;28;20192;-83
2021/06/02 03:59:48;;;;;;;11.60;9.77;;;15.30;88.00;;;;;;5038679;28;20333;-82
2021/06/02 04:02:24;;;;;;;10.53;8.80;;;15.40;88.30;;;;;;5039767;28;20214;-82
2021/06/02 04:05:14;;;;;;;10.10;9.20;;;15.40;88.10;;;;;;5027461;28;20257;-82
2021/06/02 04:08:06;;;;;;;10.27;9.23;;;15.50;88.00;;;;;;5038665;28;20615;-82
2021/06/02 04:10:56;;;;;;;10.80;9.47;;;15.50;87.70;;;;;;5020523;28;20251;-83
2021/06/02 04:13:42;;;;;;;10.20;9.30;;;15.50;87.50;;;;;;5055733;28;20238;-82
2021/06/02 04:16:15;;;;;;;11.03;9.70;;;15.60;87.50;;;;;;5049666;28;20211;-82
2021/06/02 04:18:45;;;;;;;12.43;10.93;;;15.60;87.30;;;;;;5057511;28;20212;-82
2021/06/02 04:21:19;;;;;;;13.17;11.87;;;15.70;87.40;;;;;;5034820;28;20216;-82
2021/06/02 04:23:47;;;;;;;13.03;11.73;;;15.70;87.40;;;;;;5032727;28;20683;-82
2021/06/02 04:26:33;;;;;;;13.80;12.40;;;15.90;87.30;;;;;;5050122;28;20275;-82
2021/06/02 04:29:04;;;;;;;13.33;11.70;;;15.90;87.20;;;;;;5050788;28;20866;-81
2021/06/02 04:31:31;;;;;;;11.30;10.20;;;16.00;87.10;;;;;;5026091;28;20206;-82
2021/06/02 04:34:02;;;;;;;11.43;10.33;;;16.10;86.90;;;;;;5038261;28;20233;-82
2021/06/02 04:36:31;;;;;;;11.37;10.20;;;16.20;86.60;;;;;;5038859;28;20203;-81
2021/06/02 04:39:00;;;;;;;12.10;10.93;;;16.20;86.50;;;;;;5055733;28;20229;-82
2021/06/02 04:41:29;;;;;;;12.17;10.97;;;16.30;86.30;;;;;;5036863;28;20551;-82
2021/06/02 04:43:59;;;;;;;12.73;10.87;;;16.40;86.00;;;;;;5034602;28;20477;-81
2021/06/02 04:46:26;;;;;;;11.53;10.43;;;16.60;85.70;;;;;;5026612;28;20253;-82
2021/06/02 04:48:54;;;;;;;11.37;10.20;;;16.70;85.20;;;;;;5031562;28;20296;-81
2021/06/02 04:52:00;;;;;;;11.50;10.30;;;16.80;85.10;;;;;;5025028;28;20235;-82
2021/06/02 04:54:40;;;;;;;11.27;10.13;;;17.00;85.00;;;;;;5021120;28;20280;-82
2021/06/02 04:57:52;;;;;;;10.80;9.80;;;17.10;84.70;;;;;;5037592;28;20210;-81
2021/06/02 05:00:38;;;;;;;11.33;10.13;;;17.40;84.10;;;;;;4990887;28;20284;-82
2021/06/02 05:03:35;;;;;;;11.53;9.80;;;17.50;83.50;;;;;;4986722;28;20275;-81
2021/06/02 05:06:19;;;;;;;14.10;11.00;;;17.70;83.20;;;;;;5011512;28;20928;-83
2021/06/02 05:09:29;;;;;;;12.67;11.47;;;17.70;83.00;;;;;;4996436;28;20255;-82
2021/06/02 05:12:22;;;;;;;12.17;9.80;;;17.80;83.30;;;;;;4949756;28;20216;-83
2021/06/02 05:15:07;;;;;;;11.53;10.20;;;18.00;83.30;;;;;;4980903;28;20213;-83
2021/06/02 05:18:10;;;;;;;12.27;11.07;;;18.00;83.20;;;;;;4976774;28;20599;-83
2021/06/02 05:23:44;;;;;;;13.20;10.73;;;18.30;83.50;;;;;;5012125;28;20212;-83
2021/06/02 05:26:32;;;;;;;13.13;9.87;;;18.40;83.40;;;;;;4980569;28;20614;-85
2021/06/02 05:29:41;;;;;;;11.87;10.77;;;18.60;83.30;;;;;;4979477;28;20212;-83
2021/06/02 05:32:34;;;;;;;14.40;10.93;;;18.80;82.90;;;;;;4995425;28;20204;-83
2021/06/02 05:35:07;;;;;;;13.43;10.27;;;19.10;81.90;;;;;;4981437;28;20299;-85
2021/06/02 05:37:53;;;;;;;13.17;10.60;;;19.20;81.70;;;;;;4998308;28;20652;-83
2021/06/02 05:40:35;;;;;;;11.67;10.50;;;19.30;81.60;;;;;;4995107;28;20258;-85
2021/06/02 05:43:22;;;;;;;12.83;9.90;;;19.50;81.80;;;;;;4979324;28;20212;-84
2021/06/02 05:46:07;;;;;;;10.43;9.43;;;19.60;81.60;;;;;;4979149;28;20255;-85
2021/06/02 05:48:45;;;;;;;11.17;9.47;;;19.80;81.20;;;;;;5003277;28;20220;-83
2021/06/02 05:51:34;;;;;;;16.50;9.10;;;19.90;80.10;;;;;;4998844;28;20281;-85
2021/06/02 05:54:40;;;;;;;12.57;9.73;;;20.10;79.80;;;;;;5010637;28;20696;-83
2021/06/02 05:57:08;;;;;;;9.67;8.73;;;20.20;79.60;;;;;;4945525;28;20949;-84
2021/06/02 05:59:53;;;;;;;11.00;9.17;;;20.40;78.80;;;;;;4998571;28;20216;-84
2021/06/02 06:02:29;;;;;;;10.00;9.10;;;20.40;78.30;;;;;;5002968;28;20278;-83
2021/06/02 06:05:28;;;;;;;9.83;8.93;;;20.60;78.20;;;;;;4987070;28;20642;-87
2021/06/02 06:08:17;;;;;;;9.10;8.23;;;20.70;77.40;;;;;;4994157;28;20216;-87
2021/06/02 06:11:08;;;;;;;9.87;7.93;;;20.80;76.50;;;;;;5038407;28;20256;-86
2021/06/02 06:14:00;;;;;;;10.33;8.53;;;20.80;76.60;;;;;;5056317;28;20210;-85
2021/06/02 06:16:49;;;;;;;9.73;8.73;;;20.90;76.50;;;;;;5056608;28;20230;-83
2021/06/02 06:19:45;;;;;;;9.50;8.47;;;21.10;76.70;;;;;;5047379;28;20610;-86
2021/06/02 06:22:49;;;;;;;8.70;7.90;;;21.40;75.50;;;;;;5057201;28;20209;-83
2021/06/02 06:25:24;;;;;;;9.43;8.53;;;21.60;75.10;;;;;;5018789;28;20203;-83
2021/06/02 06:28:12;;;;;;;10.80;8.97;;;21.90;73.60;;;;;;5019592;28;20207;-84
2021/06/02 06:30:41;;;;;;;9.53;8.63;;;22.00;73.10;;;;;;5027225;28;20226;-85
2021/06/02 06:33:12;;;;;;;10.10;9.00;;;22.10;72.40;;;;;;5058661;28;20704;-84
2021/06/02 06:35:42;;;;;;;12.30;8.80;;;22.10;72.30;;;;;;5045305;28;20643;-83
2021/06/02 06:38:30;;;;;;;9.33;8.33;;;22.20;72.60;;;;;;5052929;28;20210;-82
2021/06/02 06:40:59;;;;;;;9.40;7.80;;;22.50;72.70;;;;;;5023011;28;20643;-82
2021/06/02 06:43:30;;;;;;;8.80;7.40;;;22.80;71.00;;;;;;5040407;28;20211;-83
2021/06/02 06:46:00;;;;;;;9.00;8.10;;;22.90;70.80;;;;;;5022764;28;20276;-85
2021/06/02 06:48:28;;;;;;;9.37;8.37;;;23.20;69.60;;;;;;5022878;28;20678;-84
2021/06/02 06:50:59;;;;;;;8.53;7.73;;;23.30;68.20;;;;;;5024660;28;20257;-84
2021/06/02 06:53:28;;;;;;;9.33;7.43;;;23.30;68.10;;;;;;5040479;28;20691;-83
2021/06/02 06:55:57;;;;;;;8.63;7.83;;;23.40;68.10;;;;;;5023548;28;20221;-84
2021/06/02 06:58:25;;;;;;;7.13;6.47;;;23.60;67.40;;;;;;5040438;28;20203;-86
2021/06/02 07:00:54;;;;;;;8.83;8.10;;;23.90;66.80;;;;;;5022654;28;20691;-87
2021/06/02 07:03:21;;;;;;;8.20;6.80;;;23.90;65.90;;;;;;5052309;28;20284;-85
2021/06/02 07:05:50;;;;;;;8.10;7.30;;;23.80;65.40;;;;;;5049045;28;20220;-83
2021/06/02 07:08:19;;;;;;;7.47;5.90;;;23.80;65.50;;;;;;5055309;28;20221;-83
2021/06/02 07:10:46;;;;;;;6.90;6.27;;;24.00;65.50;;;;;;5066793;28;20230;-84
2021/06/02 07:13:15;;;;;;;7.47;5.93;;;24.30;62.90;;;;;;5042788;28;20580;-85
2021/06/02 07:15:45;;;;;;;6.50;5.73;;;24.40;62.50;;;;;;5043171;28;20266;-84
2021/06/02 07:18:18;;;;;;;6.90;5.93;;;24.60;62.10;;;;;;5043662;28;20647;-83
2021/06/02 07:20:47;;;;;;;5.30;4.60;;;24.90;60.90;;;;;;5055414;28;20213;-85
2021/06/02 07:23:15;;;;;;;6.40;4.00;;;25.20;59.60;;;;;;5068421;28;20573;-83
2021/06/02 07:25:43;;;;;;;5.67;4.10;;;25.20;58.30;;;;;;5059941;28;20251;-86
2021/06/02 07:28:13;;;;;;;4.93;4.33;;;25.00;57.50;;;;;;5041772;28;20211;-83
2021/06/02 07:30:40;;;;;;;6.13;5.57;;;25.00;58.30;;;;;;5077357;28;20226;-83
2021/06/02 07:33:08;;;;;;;4.80;4.30;;;25.10;57.10;;;;;;5052610;28;20214;-83
2021/06/02 07:35:35;;;;;;;7.57;5.53;;;25.20;57.50;;;;;;5068476;28;20210;-82
2021/06/02 07:38:03;;;;;;;5.40;4.63;;;25.30;57.40;;;;;;5022858;28;20207;-84
2021/06/02 07:40:30;;;;;;;7.60;5.50;;;25.40;56.80;;;;;;5043779;28;20639;-84
2021/06/02 07:42:58;;;;;;;6.83;4.50;;;25.50;55.90;;;;;;5047119;28;20215;-84
2021/06/02 07:45:25;;;;;;;5.20;4.70;;;25.50;56.10;;;;;;5021407;28;20697;-84
2021/06/02 07:47:52;;;;;;;5.23;3.93;;;25.30;55.90;;;;;;5052545;28;20287;-85
2021/06/02 07:50:20;;;;;;;5.20;4.70;;;25.20;56.50;;;;;;5078317;28;20237;-83
2021/06/02 07:52:47;;;;;;;5.23;4.20;;;25.00;57.10;;;;;;5046594;28;20356;-82
2021/06/02 07:55:15;;;;;;;5.67;4.17;;;25.00;57.50;;;;;;5061996;28;20548;-86
2021/06/02 07:57:42;;;;;;;4.43;4.03;;;25.30;56.40;;;;;;5060765;28;20215;-85
2021/06/02 08:00:10;;;;;;;6.30;3.93;;;25.60;54.00;;;;;;5041182;28;20294;-84
2021/06/02 08:02:38;;;;;;;5.47;3.83;;;25.70;53.60;;;;;;5058397;28;20709;-85
2021/06/02 08:05:07;;;;;;;4.63;4.30;;;25.90;53.40;;;;;;5041498;28;20204;-82
2021/06/02 08:07:44;;;;;;;4.10;3.63;;;26.10;52.90;;;;;;5042574;28;20202;-86
2021/06/02 08:10:16;;;;;;;3.33;3.00;;;26.30;52.30;;;;;;5043138;28;20639;-84
2021/06/02 08:12:45;;;;;;;6.13;4.10;;;26.50;52.20;;;;;;5045908;28;20293;-88
2021/06/02 08:15:14;;;;;;;7.13;4.00;;;26.60;51.90;;;;;;5040634;28;20645;-86
2021/06/02 08:17:42;;;;;;;4.00;3.60;;;26.60;51.50;;;;;;5056929;28;20208;-85
2021/06/02 08:20:12;;;;;;;6.77;4.13;;;26.40;53.00;;;;;;5042733;28;20220;-85
2021/06/02 08:22:40;;;;;;;4.10;3.80;;;26.40;53.90;;;;;;5060419;28;20206;-86
2021/06/02 08:25:10;;;;;;;4.03;3.63;;;26.50;52.70;;;;;;5067595;28;20272;-85
2021/06/02 08:27:38;;;;;;;9.57;4.03;;;26.60;52.10;;;;;;5040944;28;20289;-86
2021/06/02 08:30:08;;;;;;;5.23;3.73;;;26.40;52.60;;;;;;5040472;28;20708;-88
2021/06/02 08:32:36;;;;;;;3.93;3.50;;;26.40;52.30;;;;;;5040330;28;20260;-83
2021/06/02 08:35:04;;;;;;;3.60;3.23;;;26.40;52.20;;;;;;5039972;28;20271;-84
2021/06/02 08:37:32;;;;;;;4.43;2.80;;;26.40;49.30;;;;;;5059092;28;20263;-86
2021/06/02 08:40:00;;;;;;;4.30;3.50;;;26.20;50.40;;;;;;5059674;28;20706;-83
2021/06/02 08:42:28;;;;;;;4.47;3.60;;;26.30;51.90;;;;;;5057572;28;20225;-83
2021/06/02 08:44:55;;;;;;;6.13;3.33;;;26.60;52.20;;;;;;5042717;28;20272;-84
2021/06/02 08:47:23;;;;;;;7.13;4.03;;;27.00;51.70;;;;;;5069067;28;20209;-88
2021/06/02 08:49:53;;;;;;;3.40;3.10;;;27.40;50.10;;;;;;5061647;28;20206;-83
2021/06/02 08:52:21;;;;;;;5.77;4.03;;;27.50;50.70;;;;;;5046875;28;20561;-83
2021/06/02 08:54:49;;;;;;;5.40;4.03;;;27.70;50.00;;;;;;5061120;28;20218;-83
2021/06/02 08:57:17;;;;;;;5.53;3.40;;;27.80;49.60;;;;;;5043330;28;20222;-86
2021/06/02 08:59:44;;;;;;;3.77;3.47;;;27.90;50.00;;;;;;5040852;28;20214;-84
2021/06/02 09:02:13;;;;;;;5.93;3.33;;;27.90;50.10;;;;;;5052961;28;20647;-88
2021/06/02 09:04:44;;;;;;;3.50;3.20;;;27.90;50.00;;;;;;5050579;28;20222;-86
2021/06/02 09:07:14;;;;;;;3.50;3.20;;;27.70;49.10;;;;;;5039336;28;20221;-88
2021/06/02 09:09:42;;;;;;;3.87;2.97;;;27.50;49.50;;;;;;5039128;28;20260;-84
2021/06/02 09:12:14;;;;;;;3.50;3.20;;;27.30;47.90;;;;;;5058365;28;20538;-88
2021/06/02 09:14:43;;;;;;;4.20;3.60;;;27.20;49.50;;;;;;5047660;28;20220;-83
2021/06/02 09:17:14;;;;;;;3.70;3.37;;;27.30;50.30;;;;;;5060888;28;20221;-85
2021/06/02 09:19:47;;;;;;;3.60;3.00;;;27.60;49.90;;;;;;5053800;28;20210;-83
2021/06/02 09:22:20;;;;;;;7.60;3.03;;;27.90;48.30;;;;;;5056093;28;20680;-83
2021/06/02 09:25:02;;;;;;;5.50;3.03;;;28.10;49.00;;;;;;5102948;27;20551;-72
2021/06/02 09:27:43;;;;;;;4.07;3.27;;;28.20;48.10;;;;;;5100278;28;20215;-73
2021/06/02 09:30:17;;;;;;;3.50;3.20;;;28.20;46.90;;;;;;5097646;28;20845;-72
2021/06/02 09:32:51;;;;;;;3.17;2.87;;;28.00;46.50;;;;;;5096824;28;20229;-72
2021/06/02 09:35:19;;;;;;;3.23;3.00;;;27.90;48.30;;;;;;5099364;28;20212;-72
2021/06/02 09:37:47;;;;;;;4.33;3.03;;;27.90;49.40;;;;;;5102824;28;20209;-72
2021/06/02 09:40:37;;;;;;;4.13;3.40;;;28.10;49.00;;;;;;5108386;28;20243;-72
2021/06/02 09:43:06;;;;;;;3.73;2.57;;;28.40;46.60;;;;;;5101881;28;20319;-72
2021/06/02 09:45:34;;;;;;;3.37;3.00;;;28.50;46.50;;;;;;5090505;28;20302;-72
2021/06/02 09:48:05;;;;;;;4.10;3.23;;;28.50;46.80;;;;;;5090589;28;20506;-72
2021/06/02 09:50:33;;;;;;;6.10;3.53;;;28.60;47.70;;;;;;5090514;28;20680;-72
2021/06/02 09:53:09;;;;;;;4.07;2.70;;;28.80;47.30;;;;;;5090291;28;20604;-72
2021/06/02 09:55:39;;;;;;;5.00;2.80;;;29.00;46.50;;;;;;5090345;28;20219;-72
2021/06/02 09:58:07;;;;;;;3.30;3.00;;;28.90;46.70;;;;;;5090431;28;20201;-72
2021/06/02 10:00:42;;;;;;;3.07;2.73;;;28.90;46.40;;;;;;5090317;28;20251;-72
2021/06/02 10:03:16;;;;;;;3.90;3.00;;;28.80;44.90;;;;;;5090269;28;20224;-72
2021/06/02 10:05:48;;;;;;;2.90;2.47;;;28.60;45.00;;;;;;5089252;28;20213;-72
2021/06/02 10:08:28;;;;;;;4.67;2.20;;;28.60;46.40;;;;;;5090233;28;20209;-72
2021/06/02 10:10:56;;;;;;;6.97;2.70;;;28.60;44.90;;;;;;5090403;28;20242;-72
2021/06/02 10:13:27;;;;;;;7.60;2.33;;;28.70;44.60;;;;;;5090217;28;20217;-72
2021/06/02 10:15:54;;;;;;;3.27;2.70;;;28.50;45.30;;;;;;5090085;28;20209;-72
2021/06/02 10:18:31;;;;;;;3.17;2.70;;;28.50;44.70;;;;;;5092864;28;20220;-74
2021/06/02 10:21:06;;;;;;;2.80;2.37;;;28.80;45.90;;;;;;5093937;28;20213;-72
2021/06/02 10:23:40;;;;;;;3.30;2.53;;;29.20;45.10;;;;;;5098179;28;20237;-72
2021/06/02 10:26:09;;;;;;;2.83;2.23;;;29.40;46.30;;;;;;5094967;28;20206;-72
2021/06/02 10:28:37;;;;;;;5.27;2.80;;;29.60;44.50;;;;;;5098627;28;20209;-72
2021/06/02 10:31:07;;;;;;;5.43;2.80;;;29.50;44.50;;;;;;5098365;28;20216;-72
2021/06/02 10:33:35;;;;;;;3.13;2.10;;;29.60;45.30;;;;;;5098937;28;20210;-72
2021/06/02 10:36:10;;;;;;;5.47;2.70;;;29.60;45.80;;;;;;5089136;28;20268;-72
2021/06/02 10:38:57;;;;;;;4.47;2.40;;;29.70;43.40;;;;;;5085027;28;20229;-72
2021/06/02 10:41:49;;;;;;;3.10;2.80;;;29.70;43.90;;;;;;5086390;28;20213;-72
2021/06/02 10:44:22;;;;;;;4.77;2.40;;;29.80;44.90;;;;;;5081407;28;20244;-72
2021/06/02 10:46:51;;;;;;;3.33;2.53;;;29.90;45.00;;;;;;5086994;28;20232;-72
2021/06/02 10:49:36;;;;;;;3.97;2.60;;;30.10;44.60;;;;;;5081071;28;20225;-72
2021/06/02 10:52:05;;;;;;;4.47;2.33;;;30.20;44.20;;;;;;5080772;28;20220;-72
2021/06/02 10:54:40;;;;;;;3.90;2.53;;;30.10;41.80;;;;;;5085222;28;20217;-72
2021/06/02 10:57:13;;;;;;;3.63;2.43;;;29.90;43.20;;;;;;5084014;28;20244;-72
2021/06/02 10:59:45;;;;;;;3.00;2.70;;;29.80;43.50;;;;;;5087082;28;20695;-72
2021/06/02 11:02:15;;;;;;;2.37;2.17;;;29.60;43.20;;;;;;5085328;28;20241;-72
2021/06/02 11:05:04;;;;;;;3.60;2.70;;;29.20;43.60;;;;;;5081554;28;20225;-72
2021/06/02 11:07:33;;;;;;;3.23;2.67;;;29.20;44.70;;;;;;5074361;28;20292;-72
2021/06/02 11:10:05;;;;;;;3.47;2.67;;;29.20;43.90;;;;;;5085178;28;20209;-72
2021/06/02 11:12:45;;;;;;;2.50;2.30;;;29.20;43.70;;;;;;5083962;28;20237;-72
2021/06/02 11:15:21;;;;;;;5.07;2.30;;;29.30;44.60;;;;;;5086579;28;20804;-72
2021/06/02 11:18:17;;;;;;;5.07;2.47;;;29.60;44.50;;;;;;5085463;28;20249;-72
2021/06/02 11:20:52;;;;;;;5.20;2.60;;;29.70;46.20;;;;;;5081842;28;20221;-72
2021/06/02 11:23:22;;;;;;;6.27;2.67;;;29.80;44.30;;;;;;5084278;28;20318;-72
2021/06/02 11:25:49;;;;;;;3.17;2.57;;;29.90;44.40;;;;;;5086360;28;20743;-72
2021/06/02 11:28:44;;;;;;;2.10;1.90;;;29.80;42.20;;;;;;5085484;28;20623;-72
2021/06/02 11:31:26;;;;;;;5.37;2.70;;;29.60;43.20;;;;;;5087416;28;20266;-72
2021/06/02 11:34:14;;;;;;;3.70;2.80;;;29.60;43.40;;;;;;5084903;28;20291;-72
2021/06/02 11:37:04;;;;;;;5.23;2.47;;;29.50;42.10;;;;;;5074308;28;20572;-72
2021/06/02 11:39:32;;;;;;;3.60;2.63;;;29.50;44.10;;;;;;5083818;28;20245;-72
2021/06/02 11:42:00;;;;;;;3.80;2.47;;;29.50;44.40;;;;;;5084662;28;20270;-72
2021/06/02 11:44:28;;;;;;;2.80;2.30;;;29.60;44.80;;;;;;5082500;28;20233;-72
2021/06/02 11:46:56;;;;;;;5.20;2.47;;;29.80;44.30;;;;;;5084459;28;20262;-72
2021/06/02 11:49:27;;;;;;;4.37;2.33;;;30.00;44.20;;;;;;5086259;28;20210;-72
2021/06/02 11:51:58;;;;;;;2.77;2.53;;;30.20;43.50;;;;;;5079828;28;20210;-72
2021/06/02 11:54:25;;;;;;;3.90;2.73;;;30.40;43.20;;;;;;5084050;28;20213;-72
2021/06/02 11:56:52;;;;;;;4.13;2.37;;;30.50;41.70;;;;;;5085792;28;20297;-72
2021/06/02 11:59:20;;;;;;;2.60;2.30;;;30.20;41.10;;;;;;5084406;28;20229;-72
2021/06/02 12:01:47;;;;;;;2.67;2.47;;;29.90;42.50;;;;;;5083116;28;20225;-72
2021/06/02 12:04:23;;;;;;;3.47;2.33;;;29.80;43.40;;;;;;5078464;28;20316;-72
2021/06/02 12:06:51;;;;;;;2.10;1.90;;;29.80;43.50;;;;;;5085531;28;20209;-72
2021/06/02 12:09:18;;;;;;;3.27;2.00;;;29.90;43.00;;;;;;5083261;28;20641;-72
2021/06/02 12:11:45;;;;;;;6.30;2.73;;;29.90;42.20;;;;;;5082881;28;20219;-72
2021/06/02 12:14:20;;;;;;;3.13;2.60;;;29.60;43.20;;;;;;5084306;28;20217;-72
2021/06/02 12:16:47;;;;;;;3.50;2.37;;;29.50;43.60;;;;;;5083198;28;20632;-72
2021/06/02 12:19:17;;;;;;;2.97;2.27;;;29.50;43.40;;;;;;5085237;28;20213;-72
2021/06/02 12:21:46;;;;;;;3.23;2.20;;;29.50;44.10;;;;;;5082679;28;20309;-72
2021/06/02 12:24:13;;;;;;;4.17;2.40;;;29.50;43.80;;;;;;5083059;28;20257;-72
2021/06/02 12:26:47;;;;;;;2.53;2.20;;;29.40;42.80;;;;;;5083034;28;20212;-72
2021/06/02 12:29:16;;;;;;;2.33;2.20;;;29.30;44.20;;;;;;5082794;28;20237;-72
2021/06/02 12:31:53;;;;;;;4.73;2.47;;;29.30;45.40;;;;;;5083150;28;20232;-72
2021/06/02 12:34:27;;;;;;;6.43;2.70;;;29.50;44.60;;;;;;5085490;28;20275;-72
2021/06/02 12:37:00;;;;;;;2.13;2.03;;;29.60;44.30;;;;;;5084961;28;20214;-72
2021/06/02 12:39:32;;;;;;;3.80;2.60;;;29.70;43.30;;;;;;5077976;28;20688;-72
2021/06/02 12:42:04;;;;;;;3.57;2.50;;;29.80;43.40;;;;;;5084956;28;20235;-72
2021/06/02 12:44:37;;;;;;;2.50;2.30;;;29.90;43.50;;;;;;5078333;28;20313;-72
2021/06/02 12:47:08;;;;;;;2.33;2.13;;;30.00;44.00;;;;;;5085007;28;20217;-72
2021/06/02 12:49:45;;;;;;;4.27;2.40;;;29.90;42.60;;;;;;5083510;28;20206;-72
2021/06/02 12:52:33;;;;;;;3.93;2.67;;;29.70;43.30;;;;;;5083060;28;20315;-71
2021/06/02 12:55:11;;;;;;;4.70;2.80;;;29.60;44.60;;;;;;5047492;28;20221;-71
2021/06/02 12:57:40;;;;;;;2.37;2.17;;;29.30;44.60;;;;;;5080061;28;20298;-71
2021/06/02 13:00:09;;;;;;;5.10;2.23;;;29.10;45.30;;;;;;5082152;28;20267;-71
2021/06/02 13:02:38;;;;;;;4.80;2.80;;;29.20;45.20;;;;;;5085439;28;20217;-71
2021/06/02 13:05:06;;;;;;;4.80;2.20;;;29.20;44.90;;;;;;5077888;28;20241;-71
2021/06/02 13:07:36;;;;;;;4.83;2.33;;;29.10;44.50;;;;;;5082317;28;20634;-71
2021/06/02 13:10:19;;;;;;;3.97;2.40;;;28.90;44.50;;;;;;5078738;28;20556;-71
2021/06/02 13:12:54;;;;;;;3.33;2.30;;;29.00;45.20;;;;;;5082627;28;20217;-71
2021/06/02 13:15:42;;;;;;;4.27;2.20;;;29.00;44.80;;;;;;5081730;28;20218;-71
2021/06/02 13:18:25;;;;;;;3.00;2.50;;;29.00;44.30;;;;;;5082018;28;20243;-71
2021/06/02 13:20:52;;;;;;;3.17;2.40;;;29.00;44.40;;;;;;5081064;28;20803;-71
2021/06/02 13:23:23;;;;;;;2.60;2.27;;;29.20;44.20;;;;;;5084445;28;20550;-71
2021/06/02 13:26:02;;;;;;;2.77;2.03;;;29.30;44.40;;;;;;5080514;28;20251;-71
2021/06/02 13:28:54;;;;;;;2.63;2.13;;;29.50;43.90;;;;;;5081432;28;20228;-71
2021/06/02 13:31:35;;;;;;;3.53;2.03;;;29.60;43.00;;;;;;5083232;28;20637;-72
2021/06/02 13:34:02;;;;;;;2.33;2.13;;;29.50;44.10;;;;;;5085097;28;20296;-71